sensor_id;sensor_type;location;lat;lon;timestamp;pressure;altitude;pressure_sealevel;temperature;humidity
59043;BME280;44826;51.596;5.624;2024-01-11T00:00:02;103138.59;;;-5.10;74.01
59043;BME280;44826;51.596;5.624;2024-01-11T00:02:28;103141.22;;;-5.09;73.78
59043;BME280;44826;51.596;5.624;2024-01-11T00:04:53;103140.34;;;-5.09;73.93
59043;BME280;44826;51.596;5.624;2024-01-11T00:07:19;103128.53;;;-5.09;74.07
59043;BME280;44826;51.596;5.624;2024-01-11T00:09:44;103133.59;;;-5.09;74.31
59043;BME280;44826;51.596;5.624;2024-01-11T00:12:10;103139.69;;;-5.07;74.04
59043;BME280;44826;51.596;5.624;2024-01-11T00:14:35;103141.22;;;-5.09;74.42
59043;BME280;44826;51.596;5.624;2024-01-11T00:17:01;103139.47;;;-5.10;73.97
59043;BME280;44826;51.596;5.624;2024-01-11T00:19:27;103138.69;;;-5.09;74.54
59043;BME280;44826;51.596;5.624;2024-01-11T00:21:52;103141.38;;;-5.07;74.79
59043;BME280;44826;51.596;5.624;2024-01-11T00:24:17;103138.06;;;-5.06;74.49
59043;BME280;44826;51.596;5.624;2024-01-11T00:26:43;103132.97;;;-5.06;74.15
59043;BME280;44826;51.596;5.624;2024-01-11T00:29:08;103136.06;;;-5.10;73.77
59043;BME280;44826;51.596;5.624;2024-01-11T00:31:33;103137.59;;;-5.12;73.63
59043;BME280;44826;51.596;5.624;2024-01-11T00:33:59;103144.09;;;-5.16;74.00
59043;BME280;44826;51.596;5.624;2024-01-11T00:36:24;103138.88;;;-5.18;73.83
59043;BME280;44826;51.596;5.624;2024-01-11T00:38:50;103132.03;;;-5.19;73.87
59043;BME280;44826;51.596;5.624;2024-01-11T00:41:15;103132.94;;;-5.18;74.08
59043;BME280;44826;51.596;5.624;2024-01-11T00:43:40;103140.31;;;-5.21;73.81
59043;BME280;44826;51.596;5.624;2024-01-11T00:46:06;103145.38;;;-5.21;74.33
59043;BME280;44826;51.596;5.624;2024-01-11T00:48:32;103153.84;;;-5.21;73.83
59043;BME280;44826;51.596;5.624;2024-01-11T00:50:57;103146.16;;;-5.22;73.91
59043;BME280;44826;51.596;5.624;2024-01-11T00:53:22;103149.59;;;-5.22;73.80
59043;BME280;44826;51.596;5.624;2024-01-11T00:55:47;103140.31;;;-5.21;73.22
59043;BME280;44826;51.596;5.624;2024-01-11T00:58:13;103136.75;;;-5.23;74.32
59043;BME280;44826;51.596;5.624;2024-01-11T01:00:38;103135.13;;;-5.23;74.72
59043;BME280;44826;51.596;5.624;2024-01-11T01:03:04;103132.69;;;-5.21;74.25
59043;BME280;44826;51.596;5.624;2024-01-11T01:05:29;103137.75;;;-5.21;73.53
59043;BME280;44826;51.596;5.624;2024-01-11T01:07:54;103135.75;;;-5.25;73.47
59043;BME280;44826;51.596;5.624;2024-01-11T01:10:20;103133.97;;;-5.26;73.47
59043;BME280;44826;51.596;5.624;2024-01-11T01:12:45;103138.94;;;-5.28;73.85
59043;BME280;44826;51.596;5.624;2024-01-11T01:15:10;103143.91;;;-5.29;73.78
59043;BME280;44826;51.596;5.624;2024-01-11T01:17:37;103149.00;;;-5.29;73.80
59043;BME280;44826;51.596;5.624;2024-01-11T01:20:02;103148.75;;;-5.32;74.42
59043;BME280;44826;51.596;5.624;2024-01-11T01:22:28;103152.94;;;-5.33;73.97
59043;BME280;44826;51.596;5.624;2024-01-11T01:24:53;103153.59;;;-5.36;74.48
59043;BME280;44826;51.596;5.624;2024-01-11T01:27:19;103155.13;;;-5.38;74.40
59043;BME280;44826;51.596;5.624;2024-01-11T01:29:44;103156.66;;;-5.40;74.54
59043;BME280;44826;51.596;5.624;2024-01-11T01:32:09;103161.47;;;-5.43;75.29
59043;BME280;44826;51.596;5.624;2024-01-11T01:34:35;103161.47;;;-5.43;74.62
59043;BME280;44826;51.596;5.624;2024-01-11T01:37:00;103165.53;;;-5.45;74.85
59043;BME280;44826;51.596;5.624;2024-01-11T01:39:25;103170.41;;;-5.48;75.40
59043;BME280;44826;51.596;5.624;2024-01-11T01:41:51;103160.25;;;-5.48;75.30
59043;BME280;44826;51.596;5.624;2024-01-11T01:44:16;103169.75;;;-5.45;75.00
59043;BME280;44826;51.596;5.624;2024-01-11T01:46:41;103174.72;;;-5.47;74.69
59043;BME280;44826;51.596;5.624;2024-01-11T01:49:07;103174.47;;;-5.50;74.24
59043;BME280;44826;51.596;5.624;2024-01-11T01:51:32;103182.84;;;-5.51;74.37
59043;BME280;44826;51.596;5.624;2024-01-11T01:53:58;103190.44;;;-5.51;74.53
59043;BME280;44826;51.596;5.624;2024-01-11T01:56:25;103192.75;;;-5.54;74.78
59043;BME280;44826;51.596;5.624;2024-01-11T01:58:51;103177.28;;;-5.57;74.81
59043;BME280;44826;51.596;5.624;2024-01-11T02:01:18;103188.19;;;-5.58;74.72
59043;BME280;44826;51.596;5.624;2024-01-11T02:03:46;103183.78;;;-5.61;75.31
59043;BME280;44826;51.596;5.624;2024-01-11T02:06:13;103173.47;;;-5.63;75.55
59043;BME280;44826;51.596;5.624;2024-01-11T02:08:40;103170.19;;;-5.61;75.54
59043;BME280;44826;51.596;5.624;2024-01-11T02:11:07;103167.66;;;-5.61;76.09
59043;BME280;44826;51.596;5.624;2024-01-11T02:13:32;103172.88;;;-5.60;75.97
59043;BME280;44826;51.596;5.624;2024-01-11T02:15:58;103167.91;;;-5.58;75.66
59043;BME280;44826;51.596;5.624;2024-01-11T02:18:23;103171.19;;;-5.59;74.17
59043;BME280;44826;51.596;5.624;2024-01-11T02:20:49;103187.72;;;-5.65;74.28
59043;BME280;44826;51.596;5.624;2024-01-11T02:23:19;103188.25;;;-5.69;74.54
59043;BME280;44826;51.596;5.624;2024-01-11T02:25:46;103187.88;;;-5.73;74.69
59043;BME280;44826;51.596;5.624;2024-01-11T02:28:11;103191.56;;;-5.80;75.19
59043;BME280;44826;51.596;5.624;2024-01-11T02:30:37;103185.25;;;-5.85;75.24
59043;BME280;44826;51.596;5.624;2024-01-11T02:33:03;103186.00;;;-5.86;75.09
59043;BME280;44826;51.596;5.624;2024-01-11T02:35:30;103177.28;;;-5.90;74.64
59043;BME280;44826;51.596;5.624;2024-01-11T02:37:57;103180.59;;;-5.91;74.71
59043;BME280;44826;51.596;5.624;2024-01-11T02:40:22;103179.69;;;-5.91;75.36
59043;BME280;44826;51.596;5.624;2024-01-11T02:42:48;103182.22;;;-5.91;75.67
59043;BME280;44826;51.596;5.624;2024-01-11T02:45:13;103186.41;;;-5.92;75.19
59043;BME280;44826;51.596;5.624;2024-01-11T02:47:39;103180.97;;;-5.97;75.32
59043;BME280;44826;51.596;5.624;2024-01-11T02:50:05;103176.66;;;-5.98;75.84
59043;BME280;44826;51.596;5.624;2024-01-11T02:52:32;103181.53;;;-6.01;75.64
59043;BME280;44826;51.596;5.624;2024-01-11T02:54:58;103184.06;;;-6.01;75.40
59043;BME280;44826;51.596;5.624;2024-01-11T02:57:23;103187.09;;;-6.05;75.86
59043;BME280;44826;51.596;5.624;2024-01-11T02:59:49;103187.88;;;-6.06;76.04
59043;BME280;44826;51.596;5.624;2024-01-11T03:02:14;103175.84;;;-6.08;75.72
59043;BME280;44826;51.596;5.624;2024-01-11T03:04:40;103176.72;;;-6.08;76.04
59043;BME280;44826;51.596;5.624;2024-01-11T03:07:05;103180.00;;;-6.09;75.92
59043;BME280;44826;51.596;5.624;2024-01-11T03:09:31;103180.78;;;-6.10;76.37
59043;BME280;44826;51.596;5.624;2024-01-11T03:11:56;103185.84;;;-6.10;76.12
59043;BME280;44826;51.596;5.624;2024-01-11T03:14:21;103179.75;;;-6.12;76.22
59043;BME280;44826;51.596;5.624;2024-01-11T03:16:47;103184.06;;;-6.11;75.72
59043;BME280;44826;51.596;5.624;2024-01-11T03:19:12;103187.38;;;-6.12;75.04
59043;BME280;44826;51.596;5.624;2024-01-11T03:21:44;103182.94;;;-6.15;75.65
59043;BME280;44826;51.596;5.624;2024-01-11T03:24:09;103178.38;;;-6.19;76.00
59043;BME280;44826;51.596;5.624;2024-01-11T03:26:35;103187.66;;;-6.19;76.24
59043;BME280;44826;51.596;5.624;2024-01-11T03:29:00;103189.16;;;-6.21;76.89
59043;BME280;44826;51.596;5.624;2024-01-11T03:31:25;103177.25;;;-6.22;76.48
59043;BME280;44826;51.596;5.624;2024-01-11T03:33:51;103179.13;;;-6.20;76.16
59043;BME280;44826;51.596;5.624;2024-01-11T03:36:16;103176.34;;;-6.23;75.66
59043;BME280;44826;51.596;5.624;2024-01-11T03:38:41;103178.03;;;-6.23;75.88
59043;BME280;44826;51.596;5.624;2024-01-11T03:41:08;103177.00;;;-6.26;76.21
59043;BME280;44826;51.596;5.624;2024-01-11T03:43:35;103181.81;;;-6.29;75.90
59043;BME280;44826;51.596;5.624;2024-01-11T03:46:01;103179.03;;;-6.32;76.16
59043;BME280;44826;51.596;5.624;2024-01-11T03:48:26;103178.25;;;-6.31;75.86
59043;BME280;44826;51.596;5.624;2024-01-11T03:50:51;103178.16;;;-6.32;75.74
59043;BME280;44826;51.596;5.624;2024-01-11T03:53:17;103181.34;;;-6.35;76.33
59043;BME280;44826;51.596;5.624;2024-01-11T03:55:42;103180.19;;;-6.38;76.38
59043;BME280;44826;51.596;5.624;2024-01-11T03:58:08;103175.88;;;-6.40;77.24
59043;BME280;44826;51.596;5.624;2024-01-11T04:00:33;103177.53;;;-6.40;77.04
59043;BME280;44826;51.596;5.624;2024-01-11T04:02:58;103179.97;;;-6.42;75.79
59043;BME280;44826;51.596;5.624;2024-01-11T04:05:24;103188.94;;;-6.45;75.92
59043;BME280;44826;51.596;5.624;2024-01-11T04:07:49;103198.03;;;-6.47;75.92
59043;BME280;44826;51.596;5.624;2024-01-11T04:10:17;103206.94;;;-6.52;76.63
59043;BME280;44826;51.596;5.624;2024-01-11T04:12:42;103214.00;;;-6.59;77.15
59043;BME280;44826;51.596;5.624;2024-01-11T04:15:08;103210.34;;;-6.62;76.63
59043;BME280;44826;51.596;5.624;2024-01-11T04:17:33;103205.78;;;-6.66;77.63
59043;BME280;44826;51.596;5.624;2024-01-11T04:19:59;103209.31;;;-6.64;76.98
59043;BME280;44826;51.596;5.624;2024-01-11T04:22:24;103202.47;;;-6.65;76.63
59043;BME280;44826;51.596;5.624;2024-01-11T04:24:49;103207.66;;;-6.64;77.57
59043;BME280;44826;51.596;5.624;2024-01-11T04:27:15;103209.81;;;-6.68;77.27
59043;BME280;44826;51.596;5.624;2024-01-11T04:29:40;103218.16;;;-6.69;77.33
59043;BME280;44826;51.596;5.624;2024-01-11T04:32:05;103222.63;;;-6.67;77.34
59043;BME280;44826;51.596;5.624;2024-01-11T04:34:31;103221.47;;;-6.71;77.79
59043;BME280;44826;51.596;5.624;2024-01-11T04:36:56;103221.47;;;-6.71;77.31
59043;BME280;44826;51.596;5.624;2024-01-11T04:39:22;103209.56;;;-6.72;77.91
59043;BME280;44826;51.596;5.624;2024-01-11T04:41:47;103207.94;;;-6.71;78.09
59043;BME280;44826;51.596;5.624;2024-01-11T04:44:13;103209.06;;;-6.67;77.55
59043;BME280;44826;51.596;5.624;2024-01-11T04:46:38;103215.78;;;-6.68;77.06
59043;BME280;44826;51.596;5.624;2024-01-11T04:49:03;103225.16;;;-6.67;77.13
59043;BME280;44826;51.596;5.624;2024-01-11T04:51:29;103225.00;;;-6.68;77.84
59043;BME280;44826;51.596;5.624;2024-01-11T04:53:54;103231.19;;;-6.65;77.50
59043;BME280;44826;51.596;5.624;2024-01-11T04:56:19;103222.63;;;-6.67;77.24
59043;BME280;44826;51.596;5.624;2024-01-11T04:58:45;103236.16;;;-6.66;77.55
59043;BME280;44826;51.596;5.624;2024-01-11T05:01:17;103235.13;;;-6.68;77.99
59043;BME280;44826;51.596;5.624;2024-01-11T05:03:44;103241.72;;;-6.71;77.05
59043;BME280;44826;51.596;5.624;2024-01-11T05:06:19;103230.72;;;-6.71;77.59
59043;BME280;44826;51.596;5.624;2024-01-11T05:08:46;103239.94;;;-6.72;77.69
59043;BME280;44826;51.596;5.624;2024-01-11T05:11:19;103240.56;;;-6.74;77.61
59043;BME280;44826;51.596;5.624;2024-01-11T05:13:45;103242.84;;;-6.77;77.68
59043;BME280;44826;51.596;5.624;2024-01-11T05:16:39;103246.13;;;-6.78;77.83
59043;BME280;44826;51.596;5.624;2024-01-11T05:19:05;103240.94;;;-6.80;78.21
59043;BME280;44826;51.596;5.624;2024-01-11T05:21:31;103245.88;;;-6.81;77.56
59043;BME280;44826;51.596;5.624;2024-01-11T05:23:56;103242.34;;;-6.83;77.06
59043;BME280;44826;51.596;5.624;2024-01-11T05:26:21;103247.13;;;-6.87;77.82
59043;BME280;44826;51.596;5.624;2024-01-11T05:28:47;103251.94;;;-6.90;78.14
59043;BME280;44826;51.596;5.624;2024-01-11T05:31:14;103253.44;;;-6.92;78.36
59043;BME280;44826;51.596;5.624;2024-01-11T05:33:43;103259.25;;;-6.93;79.02
59043;BME280;44826;51.596;5.624;2024-01-11T05:36:08;103259.16;;;-6.94;78.31
59043;BME280;44826;51.596;5.624;2024-01-11T05:38:34;103265.06;;;-6.94;79.01
59043;BME280;44826;51.596;5.624;2024-01-11T05:41:00;103261.78;;;-6.93;78.21
59043;BME280;44826;51.596;5.624;2024-01-11T05:43:25;103255.72;;;-6.95;78.82
59043;BME280;44826;51.596;5.624;2024-01-11T05:45:51;103248.38;;;-6.92;80.05
59043;BME280;44826;51.596;5.624;2024-01-11T05:48:17;103246.13;;;-6.89;79.55
59043;BME280;44826;51.596;5.624;2024-01-11T05:50:43;103266.63;;;-6.86;79.42
59043;BME280;44826;51.596;5.624;2024-01-11T05:53:08;103263.34;;;-6.84;79.08
59043;BME280;44826;51.596;5.624;2024-01-11T05:55:34;103263.09;;;-6.88;78.68
59043;BME280;44826;51.596;5.624;2024-01-11T05:58:00;103267.25;;;-6.88;79.20
59043;BME280;44826;51.596;5.624;2024-01-11T06:00:25;103280.78;;;-6.88;78.63
59043;BME280;44826;51.596;5.624;2024-01-11T06:02:50;103272.94;;;-6.91;79.20
59043;BME280;44826;51.596;5.624;2024-01-11T06:05:15;103288.88;;;-6.92;78.53
59043;BME280;44826;51.596;5.624;2024-01-11T06:07:41;103291.41;;;-6.92;79.11
59043;BME280;44826;51.596;5.624;2024-01-11T06:10:07;103286.06;;;-6.95;79.01
59043;BME280;44826;51.596;5.624;2024-01-11T06:12:34;103269.13;;;-6.96;79.38
59043;BME280;44826;51.596;5.624;2024-01-11T06:15:00;103268.50;;;-6.93;80.27
59043;BME280;44826;51.596;5.624;2024-01-11T06:17:26;103264.59;;;-6.90;79.46
59043;BME280;44826;51.596;5.624;2024-01-11T06:19:51;103278.25;;;-6.88;79.45
59043;BME280;44826;51.596;5.624;2024-01-11T06:22:17;103276.59;;;-6.87;79.29
59043;BME280;44826;51.596;5.624;2024-01-11T06:24:43;103279.03;;;-6.89;78.89
59043;BME280;44826;51.596;5.624;2024-01-11T06:27:08;103276.97;;;-6.93;79.30
59043;BME280;44826;51.596;5.624;2024-01-11T06:29:33;103268.63;;;-6.92;79.33
59043;BME280;44826;51.596;5.624;2024-01-11T06:31:59;103265.22;;;-6.92;80.00
59043;BME280;44826;51.596;5.624;2024-01-11T06:34:24;103280.53;;;-6.91;79.64
59043;BME280;44826;51.596;5.624;2024-01-11T06:36:50;103276.84;;;-6.94;79.57
59043;BME280;44826;51.596;5.624;2024-01-11T06:39:15;103287.84;;;-6.94;79.55
59043;BME280;44826;51.596;5.624;2024-01-11T06:41:40;103285.81;;;-6.98;79.65
59043;BME280;44826;51.596;5.624;2024-01-11T06:44:06;103288.22;;;-6.99;79.93
59043;BME280;44826;51.596;5.624;2024-01-11T06:46:31;103294.31;;;-6.97;80.20
59043;BME280;44826;51.596;5.624;2024-01-11T06:48:56;103307.81;;;-6.97;79.35
59043;BME280;44826;51.596;5.624;2024-01-11T06:51:22;103303.28;;;-7.01;79.98
59043;BME280;44826;51.596;5.624;2024-01-11T06:53:48;103295.53;;;-7.03;79.70
59043;BME280;44826;51.596;5.624;2024-01-11T06:56:19;103304.03;;;-7.02;80.85
59043;BME280;44826;51.596;5.624;2024-01-11T06:58:45;103304.03;;;-7.02;79.96
59043;BME280;44826;51.596;5.624;2024-01-11T07:01:11;103309.09;;;-7.02;79.20
59043;BME280;44826;51.596;5.624;2024-01-11T07:03:37;103313.88;;;-7.05;78.96
59043;BME280;44826;51.596;5.624;2024-01-11T07:06:03;103324.59;;;-7.08;79.73
59043;BME280;44826;51.596;5.624;2024-01-11T07:08:29;103343.69;;;-7.11;80.31
59043;BME280;44826;51.596;5.624;2024-01-11T07:10:54;103335.34;;;-7.10;79.02
59043;BME280;44826;51.596;5.624;2024-01-11T07:13:20;103339.28;;;-7.14;79.71
59043;BME280;44826;51.596;5.624;2024-01-11T07:15:45;103332.28;;;-7.17;79.81
59043;BME280;44826;51.596;5.624;2024-01-11T07:18:11;103322.94;;;-7.18;80.08
59043;BME280;44826;51.596;5.624;2024-01-11T07:20:36;103326.47;;;-7.16;80.92
59043;BME280;44826;51.596;5.624;2024-01-11T07:23:02;103341.41;;;-7.19;80.56
59043;BME280;44826;51.596;5.624;2024-01-11T07:25:27;103334.31;;;-7.23;80.89
59043;BME280;44826;51.596;5.624;2024-01-11T07:27:52;103332.25;;;-7.27;81.21
59043;BME280;44826;51.596;5.624;2024-01-11T07:30:18;103333.00;;;-7.28;80.89
59043;BME280;44826;51.596;5.624;2024-01-11T07:32:44;103337.94;;;-7.29;81.75
59043;BME280;44826;51.596;5.624;2024-01-11T07:35:09;103335.53;;;-7.28;81.66
59043;BME280;44826;51.596;5.624;2024-01-11T07:37:36;103333.16;;;-7.26;81.36
59043;BME280;44826;51.596;5.624;2024-01-11T07:40:02;103339.09;;;-7.26;82.42
59043;BME280;44826;51.596;5.624;2024-01-11T07:42:29;103338.34;;;-7.25;80.91
59043;BME280;44826;51.596;5.624;2024-01-11T07:44:54;103342.63;;;-7.24;80.09
59043;BME280;44826;51.596;5.624;2024-01-11T07:47:20;103341.63;;;-7.26;80.29
59043;BME280;44826;51.596;5.624;2024-01-11T07:49:45;103348.31;;;-7.26;81.11
59043;BME280;44826;51.596;5.624;2024-01-11T07:52:11;103345.16;;;-7.24;80.15
59043;BME280;44826;51.596;5.624;2024-01-11T07:54:36;103338.44;;;-7.23;81.40
59043;BME280;44826;51.596;5.624;2024-01-11T07:57:01;103325.22;;;-7.21;81.26
59043;BME280;44826;51.596;5.624;2024-01-11T07:59:32;103317.88;;;-7.18;81.61
59043;BME280;44826;51.596;5.624;2024-01-11T08:01:57;103307.78;;;-7.18;82.16
59043;BME280;44826;51.596;5.624;2024-01-11T08:04:23;103305.84;;;-7.20;82.38
59043;BME280;44826;51.596;5.624;2024-01-11T08:06:48;103305.72;;;-7.22;81.86
59043;BME280;44826;51.596;5.624;2024-01-11T08:09:13;103313.44;;;-7.20;82.57
59043;BME280;44826;51.596;5.624;2024-01-11T08:11:39;103311.06;;;-7.19;82.01
59043;BME280;44826;51.596;5.624;2024-01-11T08:14:06;103314.56;;;-7.17;82.15
59043;BME280;44826;51.596;5.624;2024-01-11T08:16:31;103312.31;;;-7.13;82.46
59043;BME280;44826;51.596;5.624;2024-01-11T08:18:56;103318.41;;;-7.11;81.79
59043;BME280;44826;51.596;5.624;2024-01-11T08:21:22;103313.63;;;-7.08;82.51
59043;BME280;44826;51.596;5.624;2024-01-11T08:23:47;103317.44;;;-7.03;81.51
59043;BME280;44826;51.596;5.624;2024-01-11T08:26:17;103324.50;;;-6.99;81.43
59043;BME280;44826;51.596;5.624;2024-01-11T08:28:46;103329.84;;;-6.96;81.36
59043;BME280;44826;51.596;5.624;2024-01-11T08:31:12;103323.28;;;-6.94;81.69
59043;BME280;44826;51.596;5.624;2024-01-11T08:33:37;103315.22;;;-6.90;82.44
59043;BME280;44826;51.596;5.624;2024-01-11T08:36:04;103316.34;;;-6.86;82.29
59043;BME280;44826;51.596;5.624;2024-01-11T08:38:30;103305.63;;;-6.83;82.11
59043;BME280;44826;51.596;5.624;2024-01-11T08:40:55;103314.47;;;-6.78;82.41
59043;BME280;44826;51.596;5.624;2024-01-11T08:43:20;103314.63;;;-6.77;82.31
59043;BME280;44826;51.596;5.624;2024-01-11T08:45:46;103322.59;;;-6.72;82.12
59043;BME280;44826;51.596;5.624;2024-01-11T08:48:13;103330.47;;;-6.69;81.90
59043;BME280;44826;51.596;5.624;2024-01-11T08:50:39;103333.38;;;-6.64;81.81
59043;BME280;44826;51.596;5.624;2024-01-11T08:53:04;103332.88;;;-6.60;81.89
59043;BME280;44826;51.596;5.624;2024-01-11T08:55:29;103331.50;;;-6.57;82.12
59043;BME280;44826;51.596;5.624;2024-01-11T08:57:55;103331.00;;;-6.52;82.15
59043;BME280;44826;51.596;5.624;2024-01-11T09:00:20;103330.38;;;-6.50;82.01
59043;BME280;44826;51.596;5.624;2024-01-11T09:02:45;103344.91;;;-6.47;82.59
59043;BME280;44826;51.596;5.624;2024-01-11T09:05:13;103338.50;;;-6.44;81.71
59043;BME280;44826;51.596;5.624;2024-01-11T09:07:39;103327.72;;;-6.41;82.72
59043;BME280;44826;51.596;5.624;2024-01-11T09:10:05;103336.34;;;-6.39;82.19
59043;BME280;44826;51.596;5.624;2024-01-11T09:12:30;103341.94;;;-6.33;82.69
59043;BME280;44826;51.596;5.624;2024-01-11T09:14:56;103354.06;;;-6.29;82.07
59043;BME280;44826;51.596;5.624;2024-01-11T09:17:21;103344.97;;;-6.27;82.63
59043;BME280;44826;51.596;5.624;2024-01-11T09:19:46;103360.69;;;-6.20;83.28
59043;BME280;44826;51.596;5.624;2024-01-11T09:22:12;103359.44;;;-6.15;82.67
59043;BME280;44826;51.596;5.624;2024-01-11T09:24:37;103367.28;;;-6.12;82.59
59043;BME280;44826;51.596;5.624;2024-01-11T09:27:02;103375.13;;;-6.09;82.90
59043;BME280;44826;51.596;5.624;2024-01-11T09:29:29;103372.88;;;-6.06;83.39
59043;BME280;44826;51.596;5.624;2024-01-11T09:31:54;103376.75;;;-5.99;82.99
59043;BME280;44826;51.596;5.624;2024-01-11T09:34:20;103370.28;;;-5.96;83.01
59043;BME280;44826;51.596;5.624;2024-01-11T09:36:45;103381.81;;;-5.89;83.32
59043;BME280;44826;51.596;5.624;2024-01-11T09:39:11;103380.44;;;-5.85;83.12
59043;BME280;44826;51.596;5.624;2024-01-11T09:41:42;103390.97;;;-5.81;82.91
59043;BME280;44826;51.596;5.624;2024-01-11T09:44:09;103393.63;;;-5.79;83.76
59043;BME280;44826;51.596;5.624;2024-01-11T09:46:34;103392.34;;;-5.74;83.49
59043;BME280;44826;51.596;5.624;2024-01-11T09:49:03;103387.81;;;-5.68;84.53
59043;BME280;44826;51.596;5.624;2024-01-11T09:51:29;103395.88;;;-5.61;84.21
59043;BME280;44826;51.596;5.624;2024-01-11T09:53:55;103387.78;;;-5.57;84.18
59043;BME280;44826;51.596;5.624;2024-01-11T09:56:23;103387.53;;;-5.50;84.26
59043;BME280;44826;51.596;5.624;2024-01-11T09:58:50;103379.38;;;-5.46;84.16
59043;BME280;44826;51.596;5.624;2024-01-11T10:01:15;103387.66;;;-5.38;84.19
59043;BME280;44826;51.596;5.624;2024-01-11T10:03:42;103392.31;;;-5.32;84.93
59043;BME280;44826;51.596;5.624;2024-01-11T10:06:08;103394.56;;;-5.25;85.59
59043;BME280;44826;51.596;5.624;2024-01-11T10:08:35;103400.91;;;-5.20;85.07
59043;BME280;44826;51.596;5.624;2024-01-11T10:11:00;103404.72;;;-5.15;84.78
59043;BME280;44826;51.596;5.624;2024-01-11T10:13:30;103398.34;;;-5.10;84.31
59043;BME280;44826;51.596;5.624;2024-01-11T10:16:06;103392.75;;;-5.06;84.67
59043;BME280;44826;51.596;5.624;2024-01-11T10:18:32;103412.81;;;-4.98;84.16
59043;BME280;44826;51.596;5.624;2024-01-11T10:20:57;103425.09;;;-4.93;83.91
59043;BME280;44826;51.596;5.624;2024-01-11T10:23:23;103423.81;;;-4.88;83.90
59043;BME280;44826;51.596;5.624;2024-01-11T10:25:48;103425.06;;;-4.82;83.71
59043;BME280;44826;51.596;5.624;2024-01-11T10:28:13;103417.69;;;-4.79;84.37
59043;BME280;44826;51.596;5.624;2024-01-11T10:30:39;103421.59;;;-4.73;84.24
59043;BME280;44826;51.596;5.624;2024-01-11T10:33:07;103417.00;;;-4.66;83.49
59043;BME280;44826;51.596;5.624;2024-01-11T10:35:32;103421.56;;;-4.62;83.75
59043;BME280;44826;51.596;5.624;2024-01-11T10:37:58;103416.94;;;-4.56;83.36
59043;BME280;44826;51.596;5.624;2024-01-11T10:40:25;103408.81;;;-4.52;83.32
59043;BME280;44826;51.596;5.624;2024-01-11T10:42:51;103407.38;;;-4.48;83.13
59043;BME280;44826;51.596;5.624;2024-01-11T10:45:19;103414.59;;;-4.43;83.23
59043;BME280;44826;51.596;5.624;2024-01-11T10:47:51;103410.75;;;-4.37;83.57
59043;BME280;44826;51.596;5.624;2024-01-11T10:50:19;103406.94;;;-4.32;83.00
59043;BME280;44826;51.596;5.624;2024-01-11T10:53:12;103391.25;;;-4.27;82.43
59043;BME280;44826;51.596;5.624;2024-01-11T10:55:43;103386.66;;;-4.20;82.54
59043;BME280;44826;51.596;5.624;2024-01-11T10:58:09;103394.63;;;-4.16;82.88
59043;BME280;44826;51.596;5.624;2024-01-11T11:00:36;103405.25;;;-4.09;82.02
59043;BME280;44826;51.596;5.624;2024-01-11T11:03:02;103400.88;;;-4.00;82.80
59043;BME280;44826;51.596;5.624;2024-01-11T11:05:29;103393.59;;;-3.96;81.62
59043;BME280;44826;51.596;5.624;2024-01-11T11:07:55;103398.25;;;-3.90;81.79
59043;BME280;44826;51.596;5.624;2024-01-11T11:10:22;103409.00;;;-3.82;81.51
59043;BME280;44826;51.596;5.624;2024-01-11T11:12:48;103414.44;;;-3.77;80.84
59043;BME280;44826;51.596;5.624;2024-01-11T11:15:14;103422.66;;;-3.70;81.13
59043;BME280;44826;51.596;5.624;2024-01-11T11:17:43;103417.13;;;-3.64;80.86
59043;BME280;44826;51.596;5.624;2024-01-11T11:20:10;103415.00;;;-3.58;80.45
59043;BME280;44826;51.596;5.624;2024-01-11T11:22:41;103418.94;;;-3.51;80.69
59043;BME280;44826;51.596;5.624;2024-01-11T11:25:23;103418.50;;;-3.45;80.42
59043;BME280;44826;51.596;5.624;2024-01-11T11:27:49;103419.69;;;-3.40;79.32
59043;BME280;44826;51.596;5.624;2024-01-11T11:30:14;103413.28;;;-3.35;79.55
59043;BME280;44826;51.596;5.624;2024-01-11T11:32:43;103409.44;;;-3.30;79.07
59043;BME280;44826;51.596;5.624;2024-01-11T11:35:09;103404.66;;;-3.25;79.10
59043;BME280;44826;51.596;5.624;2024-01-11T11:37:38;103416.09;;;-3.20;78.54
59043;BME280;44826;51.596;5.624;2024-01-11T11:40:08;103420.72;;;-3.14;79.28
59043;BME280;44826;51.596;5.624;2024-01-11T11:42:34;103421.19;;;-3.08;78.69
59043;BME280;44826;51.596;5.624;2024-01-11T11:45:00;103419.97;;;-3.01;78.37
59043;BME280;44826;51.596;5.624;2024-01-11T11:47:35;103420.50;;;-2.94;78.75
59043;BME280;44826;51.596;5.624;2024-01-11T11:50:06;103427.03;;;-2.85;77.98
59043;BME280;44826;51.596;5.624;2024-01-11T11:52:33;103431.66;;;-2.80;78.21
59043;BME280;44826;51.596;5.624;2024-01-11T11:54:59;103434.66;;;-2.73;76.85
59043;BME280;44826;51.596;5.624;2024-01-11T11:57:27;103434.13;;;-2.69;76.97
59043;BME280;44826;51.596;5.624;2024-01-11T11:59:55;103426.88;;;-2.63;76.48
59043;BME280;44826;51.596;5.624;2024-01-11T12:02:21;103427.31;;;-2.57;76.58
59043;BME280;44826;51.596;5.624;2024-01-11T12:04:48;103426.09;;;-2.50;76.80
59043;BME280;44826;51.596;5.624;2024-01-11T12:07:14;103408.78;;;-2.42;76.77
59043;BME280;44826;51.596;5.624;2024-01-11T12:09:40;103411.84;;;-2.35;75.21
59043;BME280;44826;51.596;5.624;2024-01-11T12:12:06;103403.09;;;-2.26;75.64
59043;BME280;44826;51.596;5.624;2024-01-11T12:14:32;103398.38;;;-2.20;75.67
59043;BME280;44826;51.596;5.624;2024-01-11T12:16:58;103396.06;;;-2.17;75.51
59043;BME280;44826;51.596;5.624;2024-01-11T12:19:24;103387.84;;;-2.13;75.65
59043;BME280;44826;51.596;5.624;2024-01-11T12:21:50;103397.47;;;-2.09;75.18
59043;BME280;44826;51.596;5.624;2024-01-11T12:24:16;103379.03;;;-2.05;74.65
59043;BME280;44826;51.596;5.624;2024-01-11T12:26:42;103387.66;;;-2.03;75.61
59043;BME280;44826;51.596;5.624;2024-01-11T12:29:08;103388.78;;;-1.99;75.53
59043;BME280;44826;51.596;5.624;2024-01-11T12:31:35;103388.09;;;-1.96;74.32
59043;BME280;44826;51.596;5.624;2024-01-11T12:34:01;103384.66;;;-1.97;74.52
59043;BME280;44826;51.596;5.624;2024-01-11T12:36:28;103384.97;;;-1.92;74.60
59043;BME280;44826;51.596;5.624;2024-01-11T12:38:54;103386.16;;;-1.87;74.32
59043;BME280;44826;51.596;5.624;2024-01-11T12:41:21;103380.47;;;-1.83;73.74
59043;BME280;44826;51.596;5.624;2024-01-11T12:43:47;103378.34;;;-1.77;73.68